ADDS METAR Data INFO
IDs: Format: Raw Decoded Include TAF

Data at: 1408 UTC 12 Dec 2017

KHQU 121355Z AUTO 32005KT 10SM CLR 06/03 A2987 RMK AO2 T00640031
KHQU 121335Z AUTO 31005KT 10SM CLR 06/03 A2987 RMK AO2 T00630030
KHQU 121315Z AUTO 30005KT 10SM CLR 06/03 A2987 RMK AO2 T00600029
KHQU 121255Z AUTO 29006KT 10SM CLR 06/03 A2987 RMK AO2 T00560027
KHQU 121235Z AUTO 29004KT 10SM CLR 05/03 A2987 RMK AO2 T00550026
KHQU 121215Z AUTO 29005KT 10SM CLR 06/03 A2988 RMK AO2 T00570026
KHQU 121155Z AUTO 29012G15KT 10SM CLR 06/03 A2989 RMK AO2 T00580026 10074 20048
KHQU 121135Z AUTO 29006KT 10SM CLR 06/02 A2988 RMK AO2 T00580025
KHQU 121115Z AUTO 29006KT 10SM CLR 06/02 A2988 RMK AO2 T00600025
KHQU 121055Z AUTO 29007KT 10SM CLR 06/02 A2989 RMK AO2 T00590024
KHQU 121035Z AUTO 28006KT 10SM CLR 06/02 A2989 RMK AO2 T00550022
KHQU 121015Z AUTO 28006KT 10SM CLR 06/02 A2990 RMK AO2 T00560022
KHQU 120955Z AUTO 28006KT 10SM CLR 05/02 A2990 RMK AO2 T00530020
KHQU 120935Z AUTO 28006KT 10SM CLR 05/02 A2991 RMK AO2 T00510020
KHQU 120915Z AUTO 27006KT 10SM CLR 05/02 A2991 RMK AO2 T00510018
KHQU 120855Z AUTO 27006KT 10SM CLR 05/02 A2992 RMK AO2 T00510019
KHQU 120835Z AUTO 27004KT 10SM CLR 05/02 A2993 RMK AO2 T00540020
KHQU 120815Z AUTO 27005KT 10SM CLR 05/02 A2994 RMK AO2 T00530019
KHQU 120755Z AUTO 27004KT 10SM CLR 05/02 A2995 RMK AO2 T00550020
KHQU 120735Z AUTO 28005KT 10SM CLR 06/02 A2995 RMK AO2 T00580021
KHQU 120715Z AUTO 27004KT 10SM CLR 06/02 A2996 RMK AO2 T00610021
KHQU 120655Z AUTO 28005KT 10SM CLR 06/02 A2997 RMK AO2 T00590021
KHQU 120635Z AUTO 28006KT 10SM CLR 06/02 A2998 RMK AO2 T00630021
KHQU 120615Z AUTO 30006KT 10SM CLR 07/02 A2999 RMK AO2 T00690022
KHQU 120555Z AUTO 28005KT 10SM CLR 06/02 A2999 RMK AO2 T00630022 10074 20047
KHQU 120535Z AUTO 27005KT 10SM CLR 06/02 A2999 RMK AO2 T00640022
KHQU 120515Z AUTO 28004KT 10SM CLR 07/02 A3000 RMK AO2 T00680022
KHQU 120455Z AUTO 27005KT 10SM CLR 07/02 A3001 RMK AO2 T00680023
KHQU 120435Z AUTO 27005KT 10SM CLR 07/02 A3002 RMK AO2 T00680023
KHQU 120415Z AUTO 27005KT 10SM CLR 07/02 A3003 RMK AO2 T00720023
KHQU 120355Z AUTO 28005KT 10SM CLR 07/02 A3004 RMK AO2 T00670024
KHQU 120335Z AUTO 27006KT 10SM CLR 06/02 A3005 RMK AO2 T00650023
KHQU 120315Z AUTO 26005KT 10SM CLR 06/02 A3004 RMK AO2 T00630023
KHQU 120255Z AUTO 26004KT 10SM CLR 06/02 A3005 RMK AO2 T00600024
KHQU 120235Z AUTO 26005KT 10SM CLR 06/02 A3005 RMK AO2 T00600023
KHQU 120215Z AUTO 27005KT 10SM CLR 07/02 A3005 RMK AO2 T00670023
KHQU 120155Z AUTO 27006KT 10SM CLR 06/02 A3006 RMK AO2 T00570022
KHQU 120135Z AUTO 27006KT 10SM CLR 06/02 A3006 RMK AO2 T00600023
KHQU 120115Z AUTO 27006KT 10SM CLR 06/02 A3006 RMK AO2 T00560024
KHQU 120055Z AUTO 26004KT 10SM CLR 05/02 A3007 RMK AO2 T00490025
KHQU 120035Z AUTO 28004KT 10SM CLR 05/03 A3007 RMK AO2 T00520026
KHQU 120015Z AUTO 25003KT 10SM CLR 05/02 A3007 RMK AO2 T00550025
KHQU 112355Z AUTO 23003KT 10SM CLR 06/02 A3007 RMK AO2 T00600025 10164 20060 401641014
KHQU 112335Z AUTO 23003KT 10SM CLR 07/02 A3008 RMK AO2 T00680024
KHQU 112315Z AUTO 00000KT 10SM CLR 08/02 A3008 RMK AO2 T00830022
KHQU 112255Z AUTO 26003KT 10SM CLR 09/03 A3008 RMK AO2 T00870025
KHQU 112235Z AUTO 27004KT 10SM CLR 10/03 A3008 RMK AO2 T01040026
KHQU 112215Z AUTO 29005KT 10SM CLR 13/01 A3009 RMK AO2 T01260014
KHQU 112155Z AUTO 31005KT 10SM CLR 14/01 A3009 RMK AO2 T01420009
KHQU 112135Z AUTO 30008KT 10SM CLR 15/01 A3009 RMK AO2 T01470006
KHQU 112115Z AUTO 31005KT 10SM CLR 16/01 A3009 RMK AO2 T01550010
KHQU 112055Z AUTO 31007KT 280V350 10SM CLR 16/01 A3009 RMK AO2 T01580005
KHQU 112035Z AUTO 29008KT 260V320 10SM CLR 16/01 A3009 RMK AO2 T01600007
KHQU 112015Z AUTO 30006KT 10SM CLR 16/01 A3009 RMK AO2 T01600007
KHQU 111955Z AUTO 28004KT 10SM CLR 16/01 A3010 RMK AO2 T01600006
KHQU 111935Z AUTO 29006KT 10SM CLR 16/01 A3010 RMK AO2 T01610007
KHQU 111915Z AUTO 32007KT 280V340 10SM CLR 15/00 A3011 RMK AO2 T01551001
KHQU 111855Z AUTO 32005KT 10SM CLR 15/00 A3012 RMK AO2 T01520002
KHQU 111835Z AUTO 32004KT 10SM CLR 15/00 A3013 RMK AO2 T01461003
KHQU 111815Z AUTO 31006KT 10SM CLR 14/00 A3015 RMK AO2 T01411003
KHQU 111755Z AUTO 32006KT 10SM CLR 14/00 A3016 RMK AO2 T01391002 10141 20000
KHQU 111735Z AUTO 01005KT 10SM CLR 13/00 A3017 RMK AO2 T01301005
KHQU 111715Z AUTO 33007KT 290V350 10SM CLR 13/M01 A3019 RMK AO2 T01251007
KHQU 111655Z AUTO 35006KT 10SM CLR 12/00 A3021 RMK AO2 T01161004
KHQU 111635Z AUTO 36006KT 10SM CLR 11/M01 A3022 RMK AO2 T01101009
KHQU 111615Z AUTO 32004KT 10SM CLR 10/M01 A3023 RMK AO2 T01011010
KHQU 111555Z AUTO 34006KT 10SM CLR 10/M01 A3024 RMK AO2 T00961010
KHQU 111535Z AUTO 34006KT 10SM CLR 09/M01 A3025 RMK AO2 T00851012
KHQU 111515Z AUTO 34007KT 10SM CLR 08/M01 A3025 RMK AO2 T00791014
KHQU 111455Z AUTO 34008KT 10SM CLR 07/M01 A3024 RMK AO2 T00701014
KHQU 111435Z AUTO 35007KT 10SM CLR 06/M01 A3024 RMK AO2 T00601015
KHQU 111415Z AUTO 32005KT 10SM CLR 05/M02 A3025 RMK AO2 T00481018
KHQU 111355Z AUTO 33003KT 10SM CLR 04/M02 A3024 RMK AO2 T00371020
KHQU 111335Z AUTO 33004KT 10SM CLR 02/M02 A3024 RMK AO2 T00221022
KHQU 111315Z AUTO 35003KT 10SM CLR 01/M02 A3025 RMK AO2 T00141025
KHQU 111255Z AUTO 34003KT 10SM CLR 00/M03 A3024 RMK AO2 T00051026
KHQU 111235Z AUTO 01003KT 10SM CLR 01/M03 A3024 RMK AO2 T00061028
KHQU 111215Z AUTO 32004KT 10SM CLR 01/M03 A3024 RMK AO2 T00071027
KHQU 111155Z AUTO 33004KT 10SM CLR 00/M03 A3023 RMK AO2 T00001027 10022 21014
KHQU 111135Z AUTO 30003KT 10SM CLR M01/M03 A3023 RMK AO2 T10111027
KHQU 111115Z AUTO 00000KT 10SM CLR M01/M03 A3023 RMK AO2 T10081030
KHQU 111055Z AUTO 27004KT 10SM CLR M01/M03 A3023 RMK AO2 T10101027
KHQU 111035Z AUTO 30004KT 10SM CLR M01/M02 A3023 RMK AO2 T10061024
KHQU 111015Z AUTO 30003KT 10SM CLR 01/M02 A3023 RMK AO2 T00091024
KHQU 110955Z AUTO 32006KT 10SM CLR 02/M03 A3023 RMK AO2 T00211029
KHQU 110935Z AUTO 33004KT 10SM CLR 02/M03 A3023 RMK AO2 T00191030
KHQU 110915Z AUTO 32006KT 10SM CLR 02/M03 A3024 RMK AO2 T00181030
KHQU 110855Z AUTO 32006KT 10SM CLR 02/M03 A3024 RMK AO2 T00161031
KHQU 110835Z AUTO 31006KT 10SM CLR 01/M03 A3024 RMK AO2 T00141030
KHQU 110815Z AUTO 32007KT 10SM CLR 02/M03 A3025 RMK AO2 T00151031
KHQU 110755Z AUTO 31006KT 10SM CLR 00/M03 A3026 RMK AO2 T00051030
KHQU 110735Z AUTO 30005KT 10SM CLR 00/M03 A3026 RMK AO2 T00041031
KHQU 110715Z AUTO 32005KT 10SM CLR 02/M04 A3026 RMK AO2 T00181036
KHQU 110655Z AUTO 33005KT 10SM CLR 02/M04 A3027 RMK AO2 T00201038
KHQU 110635Z AUTO 32006KT 10SM CLR 01/M04 A3027 RMK AO2 T00151038
KHQU 110615Z AUTO 32005KT 10SM CLR 01/M04 A3028 RMK AO2 T00111038
KHQU 110555Z AUTO 33005KT 10SM CLR 02/M04 A3029 RMK AO2 T00181042 10019 21007
KHQU 110535Z AUTO 33004KT 10SM CLR 02/M04 A3030 RMK AO2 T00171042
KHQU 110515Z AUTO 31004KT 10SM CLR 01/M04 A3029 RMK AO2 T00101041
KHQU 110455Z AUTO 32004KT 10SM CLR 01/M04 A3030 RMK AO2 T00091040
KHQU 110435Z AUTO 33004KT 10SM CLR 01/M04 A3029 RMK AO2 T00081041
KHQU 110415Z AUTO 34003KT 10SM CLR 01/M04 A3029 RMK AO2 T00141042
KHQU 110355Z AUTO 31003KT 10SM CLR 00/M04 A3028 RMK AO2 T00011039
KHQU 110335Z AUTO 32004KT 10SM CLR M01/M03 A3028 RMK AO2 T10051030
KHQU 110315Z AUTO 32004KT 10SM CLR 00/M03 A3028 RMK AO2 T10041030
KHQU 110255Z AUTO 33004KT 10SM CLR 00/M03 A3029 RMK AO2 T00051029
KHQU 110235Z AUTO 30003KT 10SM CLR 01/M04 A3027 RMK AO2 T00071036
KHQU 110215Z AUTO 32004KT 10SM CLR 01/M03 A3027 RMK AO2 T00131035